sensor_id;sensor_type;location;lat;lon;timestamp;pressure;altitude;pressure_sealevel;temperature;humidity
11011;BME280;5558;42.702;23.178;2023-09-19T00:02:18;94086.25;;;13.30;100.00
11011;BME280;5558;42.702;23.178;2023-09-19T00:04:44;94073.75;;;13.30;100.00
11011;BME280;5558;42.702;23.178;2023-09-19T00:07:11;94091.81;;;13.33;100.00
11011;BME280;5558;42.702;23.178;2023-09-19T00:09:39;94088.94;;;13.25;100.00
11011;BME280;5558;42.702;23.178;2023-09-19T00:12:07;94088.09;;;13.29;100.00
11011;BME280;5558;42.702;23.178;2023-09-19T00:14:34;94086.78;;;13.37;100.00
11011;BME280;5558;42.702;23.178;2023-09-19T00:17:03;94043.47;;;13.21;100.00
11011;BME280;5558;42.702;23.178;2023-09-19T00:19:33;94079.41;;;13.04;100.00
11011;BME280;5558;42.702;23.178;2023-09-19T00:22:00;94034.00;;;12.55;100.00
11011;BME280;5558;42.702;23.178;2023-09-19T00:24:28;94078.88;;;12.82;100.00
11011;BME280;5558;42.702;23.178;2023-09-19T00:26:55;94071.41;;;12.84;100.00
11011;BME280;5558;42.702;23.178;2023-09-19T00:29:21;94073.28;;;12.88;100.00
11011;BME280;5558;42.702;23.178;2023-09-19T00:31:48;94064.53;;;12.83;100.00
11011;BME280;5558;42.702;23.178;2023-09-19T00:34:17;94068.75;;;12.84;100.00
11011;BME280;5558;42.702;23.178;2023-09-19T00:36:43;94067.44;;;12.91;100.00
11011;BME280;5558;42.702;23.178;2023-09-19T00:39:10;94075.16;;;12.83;100.00
11011;BME280;5558;42.702;23.178;2023-09-19T00:41:37;94078.91;;;12.77;100.00
11011;BME280;5558;42.702;23.178;2023-09-19T00:44:04;94073.81;;;12.80;100.00
11011;BME280;5558;42.702;23.178;2023-09-19T00:46:31;94076.22;;;12.87;100.00
11011;BME280;5558;42.702;23.178;2023-09-19T00:48:59;94070.38;;;12.85;100.00
11011;BME280;5558;42.702;23.178;2023-09-19T00:51:27;94058.69;;;12.81;100.00
11011;BME280;5558;42.702;23.178;2023-09-19T00:53:55;94064.50;;;12.93;100.00
11011;BME280;5558;42.702;23.178;2023-09-19T00:56:22;94063.44;;;12.89;100.00
11011;BME280;5558;42.702;23.178;2023-09-19T00:58:49;94062.66;;;12.93;100.00
11011;BME280;5558;42.702;23.178;2023-09-19T01:01:16;94061.31;;;12.96;100.00
11011;BME280;5558;42.702;23.178;2023-09-19T01:03:44;94067.97;;;12.98;100.00
11011;BME280;5558;42.702;23.178;2023-09-19T01:06:11;94070.34;;;13.00;100.00
11011;BME280;5558;42.702;23.178;2023-09-19T01:08:39;94065.31;;;12.93;100.00
11011;BME280;5558;42.702;23.178;2023-09-19T01:11:11;94061.59;;;12.89;100.00
11011;BME280;5558;42.702;23.178;2023-09-19T01:13:48;94067.72;;;12.90;100.00
11011;BME280;5558;42.702;23.178;2023-09-19T01:16:23;94067.44;;;12.91;100.00
11011;BME280;5558;42.702;23.178;2023-09-19T01:18:59;94074.06;;;12.94;100.00
11011;BME280;5558;42.702;23.178;2023-09-19T01:21:33;94075.69;;;12.80;100.00
11011;BME280;5558;42.702;23.178;2023-09-19T01:24:31;94073.56;;;12.82;100.00
11011;BME280;5558;42.702;23.178;2023-09-19T01:27:25;94057.38;;;12.73;100.00
11011;BME280;5558;42.702;23.178;2023-09-19T01:30:09;94062.69;;;12.63;100.00
11011;BME280;5558;42.702;23.178;2023-09-19T01:32:37;94057.38;;;12.63;100.00
11011;BME280;5558;42.702;23.178;2023-09-19T01:35:07;94068.78;;;12.54;100.00
11011;BME280;5558;42.702;23.178;2023-09-19T01:37:38;94071.44;;;12.44;100.00
11011;BME280;5558;42.702;23.178;2023-09-19T01:40:10;94075.44;;;12.46;100.00
11011;BME280;5558;42.702;23.178;2023-09-19T01:42:45;94064.56;;;12.33;100.00
11011;BME280;5558;42.702;23.178;2023-09-19T01:45:23;94070.91;;;12.37;100.00
11011;BME280;5558;42.702;23.178;2023-09-19T01:47:53;94070.13;;;12.36;100.00
11011;BME280;5558;42.702;23.178;2023-09-19T01:50:29;94070.66;;;12.43;100.00
11011;BME280;5558;42.702;23.178;2023-09-19T01:52:59;94077.28;;;12.41;100.00
11011;BME280;5558;42.702;23.178;2023-09-19T01:55:30;94076.75;;;12.39;100.00
11011;BME280;5558;42.702;23.178;2023-09-19T01:58:04;94071.97;;;12.31;100.00
11011;BME280;5558;42.702;23.178;2023-09-19T02:00:37;94071.97;;;12.31;100.00
11011;BME280;5558;42.702;23.178;2023-09-19T02:03:08;94062.69;;;12.43;100.00
11011;BME280;5558;42.702;23.178;2023-09-19T02:05:35;94061.63;;;12.44;100.00
11011;BME280;5558;42.702;23.178;2023-09-19T02:08:02;94064.28;;;12.24;100.00
11011;BME280;5558;42.702;23.178;2023-09-19T02:10:29;94061.91;;;12.17;100.00
11011;BME280;5558;42.702;23.178;2023-09-19T02:12:56;94064.81;;;12.26;100.00
11011;BME280;5558;42.702;23.178;2023-09-19T02:15:24;94061.91;;;12.17;100.00
11011;BME280;5558;42.702;23.178;2023-09-19T02:17:52;94064.78;;;12.11;100.00
11011;BME280;5558;42.702;23.178;2023-09-19T02:20:19;94070.88;;;12.11;100.00
11011;BME280;5558;42.702;23.178;2023-09-19T02:22:46;94065.06;;;12.19;100.00
11011;BME280;5558;42.702;23.178;2023-09-19T02:25:15;94068.50;;;12.10;100.00
11011;BME280;5558;42.702;23.178;2023-09-19T02:27:43;94062.13;;;12.16;100.00
11011;BME280;5558;42.702;23.178;2023-09-19T02:30:11;94065.31;;;12.03;100.00
11011;BME280;5558;42.702;23.178;2023-09-19T02:32:40;94061.84;;;12.02;100.00
11011;BME280;5558;42.702;23.178;2023-09-19T02:35:09;94058.41;;;11.92;100.00
11011;BME280;5558;42.702;23.178;2023-09-19T02:37:36;94054.97;;;12.11;100.00
11011;BME280;5558;42.702;23.178;2023-09-19T02:40:04;94055.78;;;12.17;100.00
11011;BME280;5558;42.702;23.178;2023-09-19T02:42:44;94044.38;;;12.26;100.00
11011;BME280;5558;42.702;23.178;2023-09-19T02:45:14;94038.00;;;12.33;100.00
11011;BME280;5558;42.702;23.178;2023-09-19T02:47:41;94028.44;;;12.32;100.00
11011;BME280;5558;42.702;23.178;2023-09-19T02:50:10;94037.75;;;12.19;100.00
11011;BME280;5558;42.702;23.178;2023-09-19T02:52:38;94040.13;;;12.05;100.00
11011;BME280;5558;42.702;23.178;2023-09-19T02:55:05;94036.13;;;12.08;100.00
11011;BME280;5558;42.702;23.178;2023-09-19T02:57:34;94035.00;;;11.79;100.00
11011;BME280;5558;42.702;23.178;2023-09-19T03:00:06;94025.50;;;11.88;100.00
11011;BME280;5558;42.702;23.178;2023-09-19T03:02:36;94027.88;;;11.79;100.00
11011;BME280;5558;42.702;23.178;2023-09-19T03:05:04;94024.59;;;11.62;100.00
11011;BME280;5558;42.702;23.178;2023-09-19T03:07:32;94028.88;;;11.63;100.00
11011;BME280;5558;42.702;23.178;2023-09-19T03:09:59;94039.81;;;11.82;100.00
11011;BME280;5558;42.702;23.178;2023-09-19T03:12:26;94024.94;;;11.81;100.00
11011;BME280;5558;42.702;23.178;2023-09-19T03:14:53;94044.03;;;11.73;100.00
11011;BME280;5558;42.702;23.178;2023-09-19T03:17:20;94023.34;;;11.75;100.00
11011;BME280;5558;42.702;23.178;2023-09-19T03:19:47;94026.75;;;11.65;100.00
11011;BME280;5558;42.702;23.178;2023-09-19T03:22:14;94000.09;;;11.25;100.00
11011;BME280;5558;42.702;23.178;2023-09-19T03:24:42;94026.19;;;11.58;100.00
11011;BME280;5558;42.702;23.178;2023-09-19T03:27:10;94040.47;;;11.52;100.00
11011;BME280;5558;42.702;23.178;2023-09-19T03:29:41;94041.03;;;11.54;100.00
11011;BME280;5558;42.702;23.178;2023-09-19T03:32:08;94039.00;;;11.71;100.00
11011;BME280;5558;42.702;23.178;2023-09-19T03:34:36;94046.69;;;11.73;100.00
11011;BME280;5558;42.702;23.178;2023-09-19T03:37:03;94050.69;;;11.75;100.00
11011;BME280;5558;42.702;23.178;2023-09-19T03:39:30;94050.16;;;11.83;100.00
11011;BME280;5558;42.702;23.178;2023-09-19T03:41:58;94051.22;;;11.92;100.00
11011;BME280;5558;42.702;23.178;2023-09-19T03:44:25;94047.53;;;11.93;100.00
11011;BME280;5558;42.702;23.178;2023-09-19T03:46:52;94052.31;;;12.01;100.00
11011;BME280;5558;42.702;23.178;2023-09-19T03:49:20;94045.97;;;12.12;100.00
11011;BME280;5558;42.702;23.178;2023-09-19T03:51:47;94042.25;;;12.18;100.00
11011;BME280;5558;42.702;23.178;2023-09-19T03:54:14;94051.78;;;12.09;100.00
11011;BME280;5558;42.702;23.178;2023-09-19T03:56:42;94051.78;;;12.04;100.00
11011;BME280;5558;42.702;23.178;2023-09-19T03:59:10;94061.34;;;12.00;100.00
11011;BME280;5558;42.702;23.178;2023-09-19T04:01:37;94053.38;;;12.00;100.00
11011;BME280;5558;42.702;23.178;2023-09-19T04:04:04;94055.72;;;11.77;100.00
11011;BME280;5558;42.702;23.178;2023-09-19T04:06:34;94059.41;;;11.81;100.00
11011;BME280;5558;42.702;23.178;2023-09-19T04:09:01;94059.19;;;11.92;100.00
11011;BME280;5558;42.702;23.178;2023-09-19T04:11:29;94060.00;;;12.03;100.00
11011;BME280;5558;42.702;23.178;2023-09-19T04:13:55;94060.81;;;12.18;100.00
11011;BME280;5558;42.702;23.178;2023-09-19T04:16:23;94053.66;;;12.19;100.00
11011;BME280;5558;42.702;23.178;2023-09-19T04:18:50;94052.31;;;12.32;100.00
11011;BME280;5558;42.702;23.178;2023-09-19T04:21:17;94047.28;;;12.50;100.00
11011;BME280;5558;42.702;23.178;2023-09-19T04:23:45;94049.66;;;12.57;100.00
11011;BME280;5558;42.702;23.178;2023-09-19T04:26:11;94025.50;;;12.73;100.00
11011;BME280;5558;42.702;23.178;2023-09-19T04:28:38;94036.03;;;13.23;100.00
11011;BME280;5558;42.702;23.178;2023-09-19T04:31:06;94031.25;;;13.84;100.00
11011;BME280;5558;42.702;23.178;2023-09-19T04:33:38;94027.16;;;14.74;100.00
11011;BME280;5558;42.702;23.178;2023-09-19T04:36:05;94023.78;;;15.63;100.00
11011;BME280;5558;42.702;23.178;2023-09-19T04:38:33;94031.13;;;16.50;100.00
11011;BME280;5558;42.702;23.178;2023-09-19T04:40:59;94030.22;;;17.33;100.00
11011;BME280;5558;42.702;23.178;2023-09-19T04:43:26;94019.81;;;17.45;100.00
11011;BME280;5558;42.702;23.178;2023-09-19T04:45:53;94026.25;;;17.30;100.00
11011;BME280;5558;42.702;23.178;2023-09-19T04:48:21;94027.31;;;17.16;100.00
11011;BME280;5558;42.702;23.178;2023-09-19T04:50:51;94022.50;;;17.31;100.00
11011;BME280;5558;42.702;23.178;2023-09-19T04:53:19;93984.03;;;17.68;100.00
11011;BME280;5558;42.702;23.178;2023-09-19T04:55:50;94025.66;;;19.03;100.00
11011;BME280;5558;42.702;23.178;2023-09-19T04:58:17;94032.06;;;19.85;100.00
11011;BME280;5558;42.702;23.178;2023-09-19T05:00:44;94032.97;;;20.45;100.00
11011;BME280;5558;42.702;23.178;2023-09-19T05:03:11;94032.44;;;21.20;93.41
11011;BME280;5558;42.702;23.178;2023-09-19T05:05:38;94029.59;;;22.01;86.08
11011;BME280;5558;42.702;23.178;2023-09-19T05:08:07;94039.41;;;22.75;77.21
11011;BME280;5558;42.702;23.178;2023-09-19T05:10:35;94043.16;;;23.36;73.41
11011;BME280;5558;42.702;23.178;2023-09-19T05:13:03;94045.19;;;24.08;67.77
11011;BME280;5558;42.702;23.178;2023-09-19T05:15:30;94045.47;;;24.55;62.71
11011;BME280;5558;42.702;23.178;2023-09-19T05:17:57;94032.88;;;24.86;60.22
11011;BME280;5558;42.702;23.178;2023-09-19T05:20:24;94039.16;;;25.30;55.85
11011;BME280;5558;42.702;23.178;2023-09-19T05:22:58;94033.63;;;25.85;54.90
11011;BME280;5558;42.702;23.178;2023-09-19T05:25:28;94025.34;;;26.09;52.30
11011;BME280;5558;42.702;23.178;2023-09-19T05:27:57;94024.34;;;25.27;54.03
11011;BME280;5558;42.702;23.178;2023-09-19T05:30:24;94021.47;;;24.41;57.81
11011;BME280;5558;42.702;23.178;2023-09-19T05:32:52;94025.53;;;23.51;61.68
11011;BME280;5558;42.702;23.178;2023-09-19T05:35:19;94011.88;;;22.82;66.20
11011;BME280;5558;42.702;23.178;2023-09-19T05:37:47;94004.88;;;22.19;70.57
11011;BME280;5558;42.702;23.178;2023-09-19T05:40:16;94013.38;;;21.80;75.01
11011;BME280;5558;42.702;23.178;2023-09-19T05:42:44;94006.69;;;21.40;81.14
11011;BME280;5558;42.702;23.178;2023-09-19T05:45:12;94007.44;;;20.94;84.08
11011;BME280;5558;42.702;23.178;2023-09-19T05:47:38;94004.59;;;20.82;86.67
11011;BME280;5558;42.702;23.178;2023-09-19T05:50:06;94003.84;;;20.73;88.00
11011;BME280;5558;42.702;23.178;2023-09-19T05:52:33;94006.94;;;21.18;85.05
11011;BME280;5558;42.702;23.178;2023-09-19T05:54:59;94008.16;;;21.66;82.45
11011;BME280;5558;42.702;23.178;2023-09-19T05:57:26;94011.13;;;22.11;77.19
11011;BME280;5558;42.702;23.178;2023-09-19T05:59:57;93994.22;;;22.02;75.02
11011;BME280;5558;42.702;23.178;2023-09-19T06:02:24;93997.88;;;21.68;79.32
11011;BME280;5558;42.702;23.178;2023-09-19T06:04:52;94000.81;;;21.46;81.89
11011;BME280;5558;42.702;23.178;2023-09-19T06:07:20;93994.78;;;21.12;84.88
11011;BME280;5558;42.702;23.178;2023-09-19T06:09:47;93986.22;;;20.93;87.00
11011;BME280;5558;42.702;23.178;2023-09-19T06:12:14;93991.50;;;21.44;84.54
11011;BME280;5558;42.702;23.178;2023-09-19T06:14:41;93988.28;;;21.88;78.92
11011;BME280;5558;42.702;23.178;2023-09-19T06:17:09;93989.84;;;22.39;76.09
11011;BME280;5558;42.702;23.178;2023-09-19T06:19:35;93987.59;;;22.61;74.54
11011;BME280;5558;42.702;23.178;2023-09-19T06:22:02;93981.19;;;22.54;73.65
11011;BME280;5558;42.702;23.178;2023-09-19T06:24:29;93993.44;;;22.84;72.83
11011;BME280;5558;42.702;23.178;2023-09-19T06:26:56;93978.63;;;22.08;75.71
11011;BME280;5558;42.702;23.178;2023-09-19T06:29:26;93985.31;;;22.10;76.55
11011;BME280;5558;42.702;23.178;2023-09-19T06:31:53;93989.91;;;22.10;77.08
11011;BME280;5558;42.702;23.178;2023-09-19T06:34:21;93986.69;;;21.87;79.17
11011;BME280;5558;42.702;23.178;2023-09-19T06:36:48;93988.47;;;21.45;84.57
11011;BME280;5558;42.702;23.178;2023-09-19T06:39:14;93983.56;;;21.47;84.34
11011;BME280;5558;42.702;23.178;2023-09-19T06:41:42;93988.00;;;21.43;80.01
11011;BME280;5558;42.702;23.178;2023-09-19T06:44:08;93991.03;;;20.53;86.19
11011;BME280;5558;42.702;23.178;2023-09-19T06:46:36;93988.31;;;20.70;87.19
11011;BME280;5558;42.702;23.178;2023-09-19T06:49:04;93990.38;;;20.99;86.63
11011;BME280;5558;42.702;23.178;2023-09-19T06:51:33;93981.38;;;20.18;90.80
11011;BME280;5558;42.702;23.178;2023-09-19T06:54:01;93987.47;;;19.93;94.07
11011;BME280;5558;42.702;23.178;2023-09-19T06:56:30;93989.50;;;19.00;100.00
11011;BME280;5558;42.702;23.178;2023-09-19T06:58:58;93996.09;;;18.94;100.00
11011;BME280;5558;42.702;23.178;2023-09-19T07:01:25;93995.16;;;19.21;100.00
11011;BME280;5558;42.702;23.178;2023-09-19T07:03:51;93997.75;;;19.04;100.00
11011;BME280;5558;42.702;23.178;2023-09-19T07:06:18;93992.00;;;19.27;100.00
11011;BME280;5558;42.702;23.178;2023-09-19T07:08:46;94003.47;;;19.50;100.00
11011;BME280;5558;42.702;23.178;2023-09-19T07:11:15;94014.41;;;19.23;100.00
11011;BME280;5558;42.702;23.178;2023-09-19T07:13:42;94006.84;;;19.25;100.00
11011;BME280;5558;42.702;23.178;2023-09-19T07:16:08;94002.16;;;19.30;100.00
11011;BME280;5558;42.702;23.178;2023-09-19T07:18:39;94011.75;;;19.62;100.00
11011;BME280;5558;42.702;23.178;2023-09-19T07:21:05;94008.34;;;19.96;100.00
11011;BME280;5558;42.702;23.178;2023-09-19T07:23:32;94004.66;;;20.22;100.00
11011;BME280;5558;42.702;23.178;2023-09-19T07:26:01;94005.91;;;20.25;98.55
11011;BME280;5558;42.702;23.178;2023-09-19T07:28:30;94001.47;;;20.29;97.94
11011;BME280;5558;42.702;23.178;2023-09-19T07:31:01;94001.28;;;20.08;100.00
11011;BME280;5558;42.702;23.178;2023-09-19T07:33:28;94008.84;;;20.15;100.00
11011;BME280;5558;42.702;23.178;2023-09-19T07:35:55;94012.88;;;20.26;98.64
11011;BME280;5558;42.702;23.178;2023-09-19T07:38:22;94001.66;;;20.32;96.13
11011;BME280;5558;42.702;23.178;2023-09-19T07:40:49;93982.19;;;20.27;96.77
11011;BME280;5558;42.702;23.178;2023-09-19T07:43:17;94003.31;;;20.11;99.85
11011;BME280;5558;42.702;23.178;2023-09-19T07:45:44;94009.56;;;20.37;98.85
11011;BME280;5558;42.702;23.178;2023-09-19T07:48:10;94013.00;;;20.38;98.42
11011;BME280;5558;42.702;23.178;2023-09-19T07:50:39;94013.16;;;20.58;95.60
11011;BME280;5558;42.702;23.178;2023-09-19T07:53:09;94007.94;;;20.53;93.53
11011;BME280;5558;42.702;23.178;2023-09-19T07:55:38;94000.84;;;20.49;94.61
11011;BME280;5558;42.702;23.178;2023-09-19T07:58:06;93988.69;;;20.26;96.60
11011;BME280;5558;42.702;23.178;2023-09-19T08:00:34;93988.81;;;20.55;94.84
11011;BME280;5558;42.702;23.178;2023-09-19T08:03:01;93996.25;;;20.41;94.57
11011;BME280;5558;42.702;23.178;2023-09-19T08:05:29;93986.91;;;20.47;95.42
11011;BME280;5558;42.702;23.178;2023-09-19T08:07:56;93984.06;;;20.43;94.46
11011;BME280;5558;42.702;23.178;2023-09-19T08:10:24;93974.75;;;20.49;92.68
11011;BME280;5558;42.702;23.178;2023-09-19T08:12:53;93975.97;;;20.69;91.60
11011;BME280;5558;42.702;23.178;2023-09-19T08:15:23;93981.06;;;20.62;92.85
11011;BME280;5558;42.702;23.178;2023-09-19T08:17:51;93976.94;;;20.65;94.48
11011;BME280;5558;42.702;23.178;2023-09-19T08:20:18;93992.56;;;21.14;91.54
11011;BME280;5558;42.702;23.178;2023-09-19T08:22:47;93987.81;;;21.02;88.65
11011;BME280;5558;42.702;23.178;2023-09-19T08:25:14;93984.34;;;21.02;89.60
11011;BME280;5558;42.702;23.178;2023-09-19T08:27:43;93995.66;;;21.24;88.27
11011;BME280;5558;42.702;23.178;2023-09-19T08:30:13;93995.84;;;21.19;87.26
11011;BME280;5558;42.702;23.178;2023-09-19T08:32:40;93994.13;;;21.15;85.96
11011;BME280;5558;42.702;23.178;2023-09-19T08:35:09;93984.25;;;21.36;87.12
11011;BME280;5558;42.702;23.178;2023-09-19T08:37:36;93980.41;;;21.74;82.17
11011;BME280;5558;42.702;23.178;2023-09-19T08:40:03;93982.72;;;21.93;82.96
11011;BME280;5558;42.702;23.178;2023-09-19T08:42:47;93978.28;;;21.89;80.31
11011;BME280;5558;42.702;23.178;2023-09-19T08:45:14;93981.84;;;22.01;81.36
11011;BME280;5558;42.702;23.178;2023-09-19T08:47:45;93973.25;;;22.28;77.86
11011;BME280;5558;42.702;23.178;2023-09-19T08:50:19;93973.88;;;22.54;75.50
11011;BME280;5558;42.702;23.178;2023-09-19T08:52:51;93972.44;;;21.87;77.16
11011;BME280;5558;42.702;23.178;2023-09-19T08:55:23;93974.47;;;21.90;79.98
11011;BME280;5558;42.702;23.178;2023-09-19T08:57:59;93969.91;;;22.31;77.34
11011;BME280;5558;42.702;23.178;2023-09-19T09:00:27;93976.28;;;22.27;77.71
11011;BME280;5558;42.702;23.178;2023-09-19T09:02:55;93963.59;;;22.27;79.02
11011;BME280;5558;42.702;23.178;2023-09-19T09:05:25;93972.84;;;21.97;80.06
11011;BME280;5558;42.702;23.178;2023-09-19T09:07:52;93960.97;;;22.19;76.94
11011;BME280;5558;42.702;23.178;2023-09-19T09:10:22;93962.00;;;22.26;75.68
11011;BME280;5558;42.702;23.178;2023-09-19T09:12:51;93959.13;;;22.31;79.49
11011;BME280;5558;42.702;23.178;2023-09-19T09:15:19;93960.91;;;22.07;78.69
11011;BME280;5558;42.702;23.178;2023-09-19T09:17:47;93941.63;;;21.96;79.05
11011;BME280;5558;42.702;23.178;2023-09-19T09:20:16;93946.69;;;22.18;78.05
11011;BME280;5558;42.702;23.178;2023-09-19T09:22:51;93955.81;;;21.85;80.95
11011;BME280;5558;42.702;23.178;2023-09-19T09:25:19;93947.34;;;22.15;80.00
11011;BME280;5558;42.702;23.178;2023-09-19T09:27:58;93944.34;;;22.70;77.03
11011;BME280;5558;42.702;23.178;2023-09-19T09:30:33;93935.69;;;22.64;76.37
11011;BME280;5558;42.702;23.178;2023-09-19T09:33:10;93939.25;;;22.56;75.80
11011;BME280;5558;42.702;23.178;2023-09-19T09:35:38;93936.00;;;22.63;73.80
11011;BME280;5558;42.702;23.178;2023-09-19T09:38:15;93929.31;;;23.14;71.47
11011;BME280;5558;42.702;23.178;2023-09-19T09:40:48;93936.22;;;23.47;68.84
11011;BME280;5558;42.702;23.178;2023-09-19T09:43:30;93934.97;;;23.69;70.21
11011;BME280;5558;42.702;23.178;2023-09-19T09:46:08;93930.25;;;23.78;69.22
11011;BME280;5558;42.702;23.178;2023-09-19T09:48:59;93928.78;;;23.80;69.08
11011;BME280;5558;42.702;23.178;2023-09-19T09:51:41;93928.63;;;23.17;69.79
11011;BME280;5558;42.702;23.178;2023-09-19T09:54:15;93926.25;;;23.15;70.67
11011;BME280;5558;42.702;23.178;2023-09-19T09:56:55;93932.19;;;22.64;74.81
11011;BME280;5558;42.702;23.178;2023-09-19T09:59:46;93913.31;;;22.64;75.33
11011;BME280;5558;42.702;23.178;2023-09-19T10:02:13;93920.78;;;22.79;73.54
11011;BME280;5558;42.702;23.178;2023-09-19T10:04:46;93920.09;;;22.82;74.59
11011;BME280;5558;42.702;23.178;2023-09-19T10:07:27;93912.22;;;22.77;72.89
11011;BME280;5558;42.702;23.178;2023-09-19T10:09:59;93914.41;;;22.95;72.44
11011;BME280;5558;42.702;23.178;2023-09-19T10:12:38;93917.22;;;22.99;70.66
11011;BME280;5558;42.702;23.178;2023-09-19T10:15:06;93921.91;;;22.90;73.81
11011;BME280;5558;42.702;23.178;2023-09-19T10:17:36;93922.75;;;22.70;72.06
11011;BME280;5558;42.702;23.178;2023-09-19T10:20:04;93928.34;;;22.98;72.74
11011;BME280;5558;42.702;23.178;2023-09-19T10:22:46;93930.66;;;22.75;70.79
11011;BME280;5558;42.702;23.178;2023-09-19T10:25:25;93923.56;;;22.50;72.97
11011;BME280;5558;42.702;23.178;2023-09-19T10:27:54;93917.75;;;22.27;72.96
11011;BME280;5558;42.702;23.178;2023-09-19T10:30:24;93918.25;;;22.41;74.52
11011;BME280;5558;42.702;23.178;2023-09-19T10:32:57;93919.72;;;22.39;73.64
11011;BME280;5558;42.702;23.178;2023-09-19T10:35:25;93914.63;;;22.58;72.88
11011;BME280;5558;42.702;23.178;2023-09-19T10:37:54;93912.97;;;22.45;72.62
11011;BME280;5558;42.702;23.178;2023-09-19T10:40:21;93915.25;;;22.22;74.36
11011;BME280;5558;42.702;23.178;2023-09-19T10:42:54;93907.91;;;22.43;73.64
11011;BME280;5558;42.702;23.178;2023-09-19T10:45:22;93900.38;;;22.16;75.28
11011;BME280;5558;42.702;23.178;2023-09-19T10:47:51;93902.59;;;21.94;74.70
11011;BME280;5558;42.702;23.178;2023-09-19T10:50:20;93901.72;;;21.90;75.76
11011;BME280;5558;42.702;23.178;2023-09-19T10:52:48;93895.03;;;22.28;77.53
11011;BME280;5558;42.702;23.178;2023-09-19T10:55:17;93895.91;;;22.53;73.38
11011;BME280;5558;42.702;23.178;2023-09-19T10:57:44;93899.47;;;22.65;73.57
11011;BME280;5558;42.702;23.178;2023-09-19T11:00:13;93894.72;;;23.07;70.43
11011;BME280;5558;42.702;23.178;2023-09-19T11:03:17;93896.56;;;23.27;67.71
11011;BME280;5558;42.702;23.178;2023-09-19T11:06:01;93891.72;;;23.69;67.20
11011;BME280;5558;42.702;23.178;2023-09-19T11:08:30;93877.97;;;23.74;64.76
11011;BME280;5558;42.702;23.178;2023-09-19T11:10:57;93887.34;;;23.52;65.15
11011;BME280;5558;42.702;23.178;2023-09-19T11:13:24;93882.13;;;23.71;67.07
11011;BME280;5558;42.702;23.178;2023-09-19T11:16:19;93877.41;;;23.80;67.73
11011;BME280;5558;42.702;23.178;2023-09-19T11:18:53;93888.56;;;23.67;65.15
11011;BME280;5558;42.702;23.178;2023-09-19T11:24:30;93875.75;;;23.40;65.11
11011;BME280;5558;42.702;23.178;2023-09-19T11:27:12;93868.97;;;23.22;66.30
11011;BME280;5558;42.702;23.178;2023-09-19T11:29:40;93867.16;;;23.26;69.30
11011;BME280;5558;42.702;23.178;2023-09-19T11:32:08;93861.34;;;23.36;69.20
11011;BME280;5558;42.702;23.178;2023-09-19T11:34:53;93858.06;;;23.06;69.04
11011;BME280;5558;42.702;23.178;2023-09-19T11:38:00;93848.59;;;22.88;70.88
11011;BME280;5558;42.702;23.178;2023-09-19T11:40:32;93845.34;;;23.07;68.96
11011;BME280;5558;42.702;23.178;2023-09-19T11:43:29;93842.28;;;22.96;68.99
11011;BME280;5558;42.702;23.178;2023-09-19T11:46:05;93849.59;;;22.95;68.94
11011;BME280;5558;42.702;23.178;2023-09-19T11:48:34;93844.31;;;23.11;70.81
11011;BME280;5558;42.702;23.178;2023-09-19T11:51:16;93842.53;;;23.27;69.67
11011;BME280;5558;42.702;23.178;2023-09-19T11:53:48;93835.53;;;23.14;68.28
11011;BME280;5558;42.702;23.178;2023-09-19T11:56:16;93835.38;;;22.62;72.86
11011;BME280;5558;42.702;23.178;2023-09-19T11:58:45;93825.84;;;22.77;73.90
11011;BME280;5558;42.702;23.178;2023-09-19T12:01:15;93824.41;;;22.91;70.40
11011;BME280;5558;42.702;23.178;2023-09-19T12:03:52;93820.56;;;23.41;73.20
11011;BME280;5558;42.702;23.178;2023-09-19T12:06:20;93815.34;;;23.72;66.60
11011;BME280;5558;42.702;23.178;2023-09-19T12:08:47;93814.72;;;23.51;66.64
11011;BME280;5558;42.702;23.178;2023-09-19T12:11:16;93805.41;;;23.36;67.83
11011;BME280;5558;42.702;23.178;2023-09-19T12:13:44;93799.97;;;23.12;68.57
11011;BME280;5558;42.702;23.178;2023-09-19T12:16:13;93794.56;;;23.24;68.09
11011;BME280;5558;42.702;23.178;2023-09-19T12:18:41;93795.59;;;23.44;68.00
11011;BME280;5558;42.702;23.178;2023-09-19T12:21:23;93783.44;;;23.38;67.69
11011;BME280;5558;42.702;23.178;2023-09-19T12:23:58;93786.00;;;23.22;68.07
11011;BME280;5558;42.702;23.178;2023-09-19T12:26:26;93790.19;;;22.95;69.72
11011;BME280;5558;42.702;23.178;2023-09-19T12:28:54;93781.31;;;22.83;71.44
11011;BME280;5558;42.702;23.178;2023-09-19T12:31:21;93780.88;;;23.05;71.50
11011;BME280;5558;42.702;23.178;2023-09-19T12:33:53;93774.00;;;23.20;70.55
11011;BME280;5558;42.702;23.178;2023-09-19T12:36:22;93777.72;;;23.27;69.50
11011;BME280;5558;42.702;23.178;2023-09-19T12:38:56;93745.53;;;23.10;68.19
11011;BME280;5558;42.702;23.178;2023-09-19T12:41:24;93772.84;;;23.45;67.78
11011;BME280;5558;42.702;23.178;2023-09-19T12:43:51;93778.56;;;23.55;67.08
11011;BME280;5558;42.702;23.178;2023-09-19T12:46:20;93771.75;;;23.73;68.47
11011;BME280;5558;42.702;23.178;2023-09-19T12:49:14;93772.63;;;23.89;67.90
11011;BME280;5558;42.702;23.178;2023-09-19T12:51:44;93777.06;;;23.70;65.69
11011;BME280;5558;42.702;23.178;2023-09-19T12:54:11;93772.16;;;23.87;66.92
11011;BME280;5558;42.702;23.178;2023-09-19T12:56:40;93766.84;;;24.19;65.75
11011;BME280;5558;42.702;23.178;2023-09-19T12:59:11;93767.03;;;24.26;65.78
11011;BME280;5558;42.702;23.178;2023-09-19T13:01:39;93767.34;;;24.08;65.28
11011;BME280;5558;42.702;23.178;2023-09-19T13:04:11;93762.13;;;24.16;64.35
11011;BME280;5558;42.702;23.178;2023-09-19T13:06:40;93758.63;;;23.99;64.88
11011;BME280;5558;42.702;23.178;2023-09-19T13:09:10;93751.50;;;23.95;65.84
11011;BME280;5558;42.702;23.178;2023-09-19T13:11:39;93755.22;;;24.02;67.57
11011;BME280;5558;42.702;23.178;2023-09-19T13:14:16;93749.16;;;24.21;64.99